Terminal Aerodrome Forecast
Issued by NWS

Home | Current Version | Previous Version | Text Only | Print | Product List | Glossary Off
Versions: 1 2 3 4 5 6 7 8 9 10 11 12 13 14 15 16 17 18 19 20 21 22 23

000
FTUS43 KGRB 201248 AAA
TAFAUW
TAF AMD
KAUW 201248Z 2013/2112 11004KT 3SM -FZRA BR SCT003 OVC040
      TEMPO 2013/2016 1 1/2SM -RAPL BR OVC003
     FM201600 09004KT 2SM -RA BR OVC003
     FM201800 10004KT 3SM -DZ BR OVC006
     FM210300 10004KT 1SM -DZ BR OVC003
     FM210600 10005KT 1/2SM -DZ FG OVC002=

USA.gov is the U.S. government's official web portal to all federal, state and local government web resources and services.